createdAt,value
2018-10-17T00:00:09.876Z,11.00
2018-10-17T00:02:38.922Z,11.10
2018-10-17T00:05:07.971Z,11.10
2018-10-17T00:07:37.145Z,11.00
2018-10-17T00:10:06.836Z,10.90
2018-10-17T00:12:35.711Z,10.90
2018-10-17T00:15:04.728Z,10.90
2018-10-17T00:17:33.719Z,10.90
2018-10-17T00:20:02.711Z,10.90
2018-10-17T00:22:31.593Z,10.90
2018-10-17T00:25:00.426Z,10.90
2018-10-17T00:27:29.558Z,10.90
2018-10-17T00:29:58.457Z,10.90
2018-10-17T00:32:27.438Z,10.90
2018-10-17T00:34:56.620Z,10.90
2018-10-17T00:37:25.390Z,10.80
2018-10-17T00:39:54.399Z,10.70
2018-10-17T00:42:23.336Z,10.70
2018-10-17T00:44:52.678Z,10.70
2018-10-17T00:47:21.589Z,10.60
2018-10-17T00:49:50.469Z,10.60
2018-10-17T00:52:19.372Z,10.60
2018-10-17T00:54:48.163Z,10.60
2018-10-17T00:57:17.019Z,10.60
2018-10-17T00:59:45.946Z,10.60
2018-10-17T01:02:14.767Z,10.60
2018-10-17T01:04:44.674Z,10.70
2018-10-17T01:07:13.554Z,10.60
2018-10-17T01:09:42.351Z,10.60
2018-10-17T01:12:11.216Z,10.60
2018-10-17T01:14:40.100Z,10.60
2018-10-17T01:17:08.938Z,10.50
2018-10-17T01:19:37.843Z,10.60
2018-10-17T01:22:06.721Z,10.50
2018-10-17T01:24:35.527Z,10.50
2018-10-17T01:27:04.631Z,10.60
2018-10-17T01:29:33.495Z,10.50
2018-10-17T01:32:02.451Z,10.60
2018-10-17T01:34:31.266Z,10.60
2018-10-17T01:37:00.181Z,10.60
2018-10-17T01:39:28.963Z,10.50
2018-10-17T01:41:57.904Z,10.40
2018-10-17T01:44:26.738Z,10.30
2018-10-17T01:46:56.013Z,10.30
2018-10-17T01:49:24.782Z,10.20
2018-10-17T01:51:53.634Z,10.20
2018-10-17T01:54:22.464Z,10.20
2018-10-17T01:56:51.342Z,10.10
2018-10-17T01:59:20.579Z,10.10
2018-10-17T02:01:49.428Z,10.10
2018-10-17T02:04:18.496Z,10.10
2018-10-17T02:06:47.395Z,10.10
2018-10-17T02:09:16.303Z,10.10
2018-10-17T02:11:45.079Z,10.10
2018-10-17T02:14:13.961Z,10.00
2018-10-17T02:16:42.825Z,9.90
2018-10-17T02:19:11.746Z,9.90
2018-10-17T02:21:40.707Z,9.90
2018-10-17T02:24:09.624Z,9.90
2018-10-17T02:26:38.550Z,9.80
2018-10-17T02:29:07.424Z,9.80
2018-10-17T02:31:36.339Z,9.80
2018-10-17T02:34:05.263Z,9.70
2018-10-17T02:36:34.094Z,9.70
2018-10-17T02:39:02.911Z,9.70
2018-10-17T02:41:31.863Z,9.70
2018-10-17T02:44:00.750Z,9.70
2018-10-17T02:46:29.567Z,9.70
2018-10-17T02:48:58.516Z,9.70
2018-10-17T02:51:27.324Z,9.70
2018-10-17T02:53:56.209Z,9.70
2018-10-17T02:56:31.680Z,9.70
2018-10-17T02:59:00.613Z,9.70
2018-10-17T03:01:29.395Z,9.70
2018-10-17T03:03:58.279Z,9.60
2018-10-17T03:06:27.158Z,9.60
2018-10-17T03:08:56.079Z,9.60
2018-10-17T03:11:24.945Z,9.60
2018-10-17T03:13:53.940Z,9.60
2018-10-17T03:16:22.811Z,9.60
2018-10-17T03:18:51.711Z,9.60
2018-10-17T03:21:20.618Z,9.60
2018-10-17T03:23:49.631Z,9.50
2018-10-17T03:26:18.463Z,9.50
2018-10-17T03:28:47.327Z,9.40
2018-10-17T03:31:16.352Z,9.40
2018-10-17T03:33:45.180Z,9.40
2018-10-17T03:36:14.011Z,9.40
2018-10-17T03:38:42.928Z,9.40
2018-10-17T03:41:11.875Z,9.40
2018-10-17T03:43:40.916Z,9.40
2018-10-17T03:46:09.755Z,9.50
2018-10-17T03:48:38.600Z,9.40
2018-10-17T03:51:07.461Z,9.40
2018-10-17T03:53:36.327Z,9.30
2018-10-17T03:56:05.538Z,9.30
2018-10-17T03:58:34.396Z,9.30
2018-10-17T04:01:03.567Z,9.40
2018-10-17T04:03:32.346Z,9.30
2018-10-17T04:06:01.131Z,9.30
2018-10-17T04:08:29.956Z,9.30
2018-10-17T04:10:58.918Z,9.30
2018-10-17T04:13:27.811Z,9.30
2018-10-17T04:15:56.651Z,9.20
2018-10-17T04:18:25.476Z,9.30
2018-10-17T04:20:54.539Z,9.20
2018-10-17T04:23:23.465Z,9.20
2018-10-17T04:25:52.467Z,9.20
2018-10-17T04:28:21.281Z,9.20
2018-10-17T04:30:50.139Z,9.20
2018-10-17T04:33:19.008Z,9.20
2018-10-17T04:35:47.938Z,9.20
2018-10-17T04:38:16.837Z,9.10
2018-10-17T04:40:45.687Z,9.10
2018-10-17T04:43:14.625Z,9.20
2018-10-17T04:45:43.519Z,9.20
2018-10-17T04:48:12.354Z,9.10
2018-10-17T04:50:41.307Z,9.20
2018-10-17T04:53:10.198Z,9.20
2018-10-17T04:55:39.075Z,9.20
2018-10-17T04:58:07.896Z,9.10
2018-10-17T05:00:36.766Z,9.10
2018-10-17T05:03:05.955Z,9.10
2018-10-17T05:05:34.860Z,9.00
2018-10-17T05:08:03.639Z,9.10
2018-10-17T05:10:32.444Z,9.00
2018-10-17T05:13:01.334Z,9.00
2018-10-17T05:15:30.185Z,9.00
2018-10-17T05:17:59.119Z,9.00
2018-10-17T05:20:28.588Z,9.00
2018-10-17T05:22:57.446Z,9.00
2018-10-17T05:25:26.267Z,9.00
2018-10-17T05:27:55.151Z,9.00
2018-10-17T05:30:24.068Z,9.00
2018-10-17T05:32:53.176Z,9.00
2018-10-17T05:35:22.191Z,9.00
2018-10-17T05:37:51.359Z,9.00
2018-10-17T05:40:20.226Z,9.00
2018-10-17T05:42:49.197Z,8.90
2018-10-17T05:45:18.059Z,8.90
2018-10-17T05:47:46.919Z,8.90
2018-10-17T05:50:15.690Z,9.00
2018-10-17T05:52:44.539Z,9.00
2018-10-17T05:55:13.458Z,9.00
2018-10-17T05:57:42.218Z,9.00
2018-10-17T06:00:11.018Z,8.90
2018-10-17T06:02:39.959Z,9.00
2018-10-17T06:05:09.258Z,8.90
2018-10-17T06:07:38.086Z,8.90
2018-10-17T06:10:08.200Z,8.90
2018-10-17T06:12:37.084Z,8.80
2018-10-17T06:15:06.391Z,8.90
2018-10-17T06:17:35.321Z,8.90
2018-10-17T06:20:04.444Z,8.90
2018-10-17T06:22:33.354Z,8.90
2018-10-17T06:25:02.267Z,9.00
2018-10-17T06:27:31.237Z,9.00
2018-10-17T06:30:00.168Z,9.10
2018-10-17T06:32:29.032Z,9.10
2018-10-17T06:34:57.960Z,9.00
2018-10-17T06:37:26.839Z,9.00
2018-10-17T06:39:55.785Z,9.00
2018-10-17T06:42:24.632Z,9.10
2018-10-17T06:44:53.628Z,9.10
2018-10-17T06:47:22.487Z,9.10
2018-10-17T06:49:51.363Z,9.10
2018-10-17T06:52:20.211Z,9.20
2018-10-17T06:54:49.285Z,9.30
2018-10-17T06:57:18.261Z,9.30
2018-10-17T06:59:47.120Z,9.30
2018-10-17T07:02:16.130Z,9.40
2018-10-17T07:04:44.904Z,9.50
2018-10-17T07:07:13.842Z,9.50
2018-10-17T07:09:42.795Z,9.60
2018-10-17T07:12:11.702Z,9.70
2018-10-17T07:14:40.550Z,9.70
2018-10-17T07:17:09.402Z,9.80
2018-10-17T07:19:38.560Z,9.90
2018-10-17T07:22:07.535Z,9.90
2018-10-17T07:24:37.632Z,10.00
2018-10-17T07:27:07.553Z,10.10
2018-10-17T07:29:37.238Z,10.20
2018-10-17T07:32:06.788Z,10.30
2018-10-17T07:34:36.432Z,10.50
2018-10-17T07:37:06.494Z,10.60
2018-10-17T07:39:36.089Z,10.80
2018-10-17T07:42:06.041Z,10.90
2018-10-17T07:44:35.589Z,11.00
2018-10-17T07:47:05.256Z,11.10
2018-10-17T07:49:35.619Z,11.10
2018-10-17T07:52:05.828Z,11.40
2018-10-17T07:54:35.674Z,11.50
2018-10-17T07:57:06.238Z,11.70
2018-10-17T07:59:35.835Z,11.80
2018-10-17T08:02:05.518Z,11.80
2018-10-17T08:04:35.784Z,11.90
2018-10-17T08:07:05.958Z,11.90
2018-10-17T08:09:36.835Z,12.00
2018-10-17T08:12:06.454Z,12.00
2018-10-17T08:14:36.124Z,12.10
2018-10-17T08:17:05.784Z,12.10
2018-10-17T08:19:36.268Z,12.20
2018-10-17T08:22:05.209Z,12.20
2018-10-17T08:24:34.039Z,12.30
2018-10-17T08:27:02.890Z,12.40
2018-10-17T08:29:31.783Z,12.50
2018-10-17T08:32:00.949Z,12.60
2018-10-17T08:34:29.845Z,12.70
2018-10-17T08:36:59.004Z,12.80
2018-10-17T08:39:28.027Z,12.90
2018-10-17T08:41:56.867Z,13.00
2018-10-17T08:44:25.796Z,13.10
2018-10-17T08:46:54.655Z,13.20
2018-10-17T08:49:23.732Z,13.30
2018-10-17T08:51:52.599Z,13.50
2018-10-17T08:54:21.460Z,13.50
2018-10-17T08:56:50.350Z,13.60
2018-10-17T08:59:19.296Z,13.80
2018-10-17T09:01:48.091Z,13.90
2018-10-17T09:04:16.940Z,14.00
2018-10-17T09:06:45.735Z,14.10
2018-10-17T09:09:14.571Z,14.20
2018-10-17T09:11:43.387Z,14.30
2018-10-17T09:14:12.559Z,14.40
2018-10-17T09:16:41.589Z,14.60
2018-10-17T09:19:10.753Z,14.70
2018-10-17T09:21:39.909Z,14.80
2018-10-17T09:24:08.527Z,14.90
2018-10-17T09:26:37.421Z,15.00
2018-10-17T09:29:06.268Z,15.10
2018-10-17T09:31:35.397Z,15.50
2018-10-17T09:34:04.275Z,16.30
2018-10-17T09:36:33.105Z,17.20
2018-10-17T09:39:01.932Z,17.40
2018-10-17T09:41:30.793Z,17.30
2018-10-17T09:44:00.058Z,17.30
2018-10-17T09:46:29.016Z,17.30
2018-10-17T09:48:58.015Z,17.30
2018-10-17T09:51:26.869Z,17.40
2018-10-17T09:53:55.747Z,17.40
2018-10-17T09:56:24.521Z,17.40
2018-10-17T09:58:53.988Z,17.40
2018-10-17T10:01:28.327Z,17.40
2018-10-17T10:03:57.361Z,17.50
2018-10-17T10:06:26.298Z,17.60
2018-10-17T10:08:55.273Z,17.60
2018-10-17T10:11:24.202Z,17.70
2018-10-17T10:13:53.060Z,17.90
2018-10-17T10:16:21.916Z,18.10
2018-10-17T10:18:50.724Z,18.10
2018-10-17T10:21:19.622Z,18.20
2018-10-17T10:23:48.752Z,18.20
2018-10-17T10:26:17.371Z,18.30
2018-10-17T10:28:46.253Z,18.40
2018-10-17T10:31:15.280Z,18.50
2018-10-17T10:33:44.154Z,18.80
2018-10-17T10:36:13.033Z,18.90
2018-10-17T10:38:41.841Z,19.00
2018-10-17T10:41:10.740Z,19.20
2018-10-17T10:43:39.900Z,19.30
2018-10-17T10:46:08.812Z,19.40
2018-10-17T10:48:37.813Z,19.40
2018-10-17T10:51:07.463Z,19.40
2018-10-17T10:53:36.307Z,19.40
2018-10-17T10:56:05.787Z,19.50
2018-10-17T10:58:34.651Z,19.60
2018-10-17T11:01:03.361Z,19.70
2018-10-17T11:03:32.279Z,19.70
2018-10-17T11:06:01.122Z,19.80
2018-10-17T11:08:29.992Z,19.90
2018-10-17T11:10:59.029Z,20.00
2018-10-17T11:13:27.989Z,20.10
2018-10-17T11:15:56.739Z,20.30
2018-10-17T11:18:25.548Z,20.30
2018-10-17T11:20:54.391Z,20.40
2018-10-17T11:23:23.193Z,20.40
2018-10-17T11:25:52.049Z,20.70
2018-10-17T11:28:20.876Z,20.70
2018-10-17T11:30:50.983Z,20.80
2018-10-17T11:33:20.048Z,20.80
2018-10-17T11:35:48.824Z,20.70
2018-10-17T11:38:17.790Z,20.90
2018-10-17T11:40:46.856Z,21.00
2018-10-17T11:43:15.585Z,21.10
2018-10-17T11:45:44.347Z,21.20
2018-10-17T11:48:13.212Z,21.30
2018-10-17T11:50:42.092Z,21.50
2018-10-17T11:53:11.097Z,21.70
2018-10-17T11:55:39.907Z,21.70
2018-10-17T11:58:08.304Z,22.00
2018-10-17T12:00:37.149Z,22.50
2018-10-17T12:03:06.127Z,22.70
2018-10-17T12:05:35.547Z,23.10
2018-10-17T12:08:04.117Z,23.50
2018-10-17T12:10:33.033Z,23.60
2018-10-17T12:13:01.876Z,23.70
2018-10-17T12:15:30.808Z,23.80
2018-10-17T12:17:59.748Z,23.80
2018-10-17T12:20:28.624Z,24.20
2018-10-17T12:22:57.427Z,24.60
2018-10-17T12:25:26.287Z,24.80
2018-10-17T12:27:55.209Z,24.40
2018-10-17T12:30:24.149Z,24.40
2018-10-17T12:32:53.380Z,24.30
2018-10-17T12:35:22.659Z,23.80
2018-10-17T12:37:51.514Z,23.50
2018-10-17T12:40:20.669Z,23.90
2018-10-17T12:42:49.567Z,23.60
2018-10-17T12:45:18.484Z,23.70
2018-10-17T12:47:47.238Z,23.90
2018-10-17T12:50:16.138Z,24.00
2018-10-17T12:52:45.176Z,23.80
2018-10-17T12:55:14.178Z,24.20
2018-10-17T12:57:42.956Z,24.40
2018-10-17T13:00:11.823Z,24.20
2018-10-17T13:02:40.747Z,24.20
2018-10-17T13:05:10.360Z,24.40
2018-10-17T13:07:39.409Z,23.90
2018-10-17T13:10:09.701Z,24.00
2018-10-17T13:12:38.574Z,24.30
2018-10-17T13:15:08.746Z,24.60
2018-10-17T13:17:37.479Z,24.70
2018-10-17T13:20:06.464Z,24.30
2018-10-17T13:22:35.478Z,24.40
2018-10-17T13:25:04.355Z,24.60
2018-10-17T13:27:33.176Z,24.90
2018-10-17T13:30:02.380Z,24.80
2018-10-17T13:32:31.359Z,25.00
2018-10-17T13:35:00.221Z,24.90
2018-10-17T13:37:29.103Z,24.60
2018-10-17T13:39:57.941Z,24.30
2018-10-17T13:42:26.720Z,24.20
2018-10-17T13:44:55.628Z,24.20
2018-10-17T13:47:24.611Z,24.10
2018-10-17T13:49:53.782Z,23.80
2018-10-17T13:52:22.608Z,23.90
2018-10-17T13:54:51.541Z,24.00
2018-10-17T13:57:20.389Z,24.40
2018-10-17T13:59:49.338Z,24.60
2018-10-17T14:02:18.295Z,24.70
2018-10-17T14:04:47.134Z,24.60
2018-10-17T14:07:16.082Z,24.40
2018-10-17T14:09:44.832Z,24.20
2018-10-17T14:12:13.916Z,24.30
2018-10-17T14:14:42.926Z,24.40
2018-10-17T14:17:11.906Z,24.30
2018-10-17T14:19:40.705Z,24.20
2018-10-17T14:22:10.094Z,23.80
2018-10-17T14:24:38.895Z,23.60
2018-10-17T14:27:08.201Z,23.50
2018-10-17T14:29:37.075Z,23.40
2018-10-17T14:32:06.541Z,23.30
2018-10-17T14:34:35.628Z,23.20
2018-10-17T14:37:04.729Z,23.10
2018-10-17T14:39:33.612Z,23.10
2018-10-17T14:42:02.471Z,22.90
2018-10-17T14:44:31.396Z,22.90
2018-10-17T14:47:01.143Z,22.90
2018-10-17T14:49:30.001Z,22.60
2018-10-17T14:51:58.814Z,22.50
2018-10-17T14:54:27.655Z,22.30
2018-10-17T14:56:56.579Z,22.10
2018-10-17T14:59:25.396Z,21.90
2018-10-17T15:01:54.516Z,21.80
2018-10-17T15:04:23.408Z,21.60
2018-10-17T15:06:52.347Z,21.60
2018-10-17T15:09:21.320Z,21.70
2018-10-17T15:11:50.270Z,21.80
2018-10-17T15:14:18.860Z,21.90
2018-10-17T15:16:47.789Z,21.90
2018-10-17T15:19:16.489Z,22.10
2018-10-17T15:21:45.355Z,22.10
2018-10-17T15:24:14.290Z,22.00
2018-10-17T15:26:43.069Z,21.90
2018-10-17T15:29:11.917Z,21.70
2018-10-17T15:31:41.320Z,21.60
2018-10-17T15:34:10.624Z,21.40
2018-10-17T15:36:39.474Z,21.30
2018-10-17T15:39:11.894Z,21.20
2018-10-17T15:41:43.761Z,21.10
2018-10-17T15:44:13.213Z,21.10
2018-10-17T15:46:44.409Z,20.90
2018-10-17T15:49:13.266Z,20.90
2018-10-17T15:51:42.063Z,20.60
2018-10-17T15:54:10.935Z,20.60
2018-10-17T15:56:39.638Z,20.40
2018-10-17T15:59:08.509Z,20.30
2018-10-17T16:01:37.483Z,20.00
2018-10-17T16:04:06.271Z,19.90
2018-10-17T16:06:35.060Z,19.80
2018-10-17T16:09:06.480Z,19.60
2018-10-17T16:11:35.297Z,19.60
2018-10-17T16:14:04.338Z,19.40
2018-10-17T16:16:33.093Z,19.10
2018-10-17T16:19:01.944Z,19.00
2018-10-17T16:21:30.732Z,18.90
2018-10-17T16:23:59.622Z,18.70
2018-10-17T16:26:28.418Z,18.70
2018-10-17T16:28:57.299Z,18.50
2018-10-17T16:31:26.089Z,18.40
2018-10-17T16:33:55.032Z,18.30
2018-10-17T16:36:23.859Z,18.30
2018-10-17T16:38:52.669Z,18.10
2018-10-17T16:41:21.495Z,18.20
2018-10-17T16:43:50.277Z,18.10
2018-10-17T16:46:19.154Z,18.10
2018-10-17T16:48:47.944Z,18.00
2018-10-17T16:51:16.723Z,17.90
2018-10-17T16:53:45.564Z,17.90
2018-10-17T16:56:14.416Z,17.80
2018-10-17T16:58:43.269Z,17.70
2018-10-17T17:01:11.997Z,17.80
2018-10-17T17:03:40.789Z,17.70
2018-10-17T17:06:09.562Z,17.70
2018-10-17T17:08:38.445Z,17.70
2018-10-17T17:11:07.229Z,17.70
2018-10-17T17:13:36.016Z,17.70
2018-10-17T17:16:05.050Z,17.60
2018-10-17T17:18:33.954Z,17.60
2018-10-17T17:21:02.786Z,17.40
2018-10-17T17:26:13.288Z,17.40
2018-10-17T17:28:42.136Z,17.20
2018-10-17T17:31:10.915Z,17.10
2018-10-17T17:33:39.904Z,16.90
2018-10-17T17:36:08.732Z,16.90
2018-10-17T17:38:37.515Z,16.80
2018-10-17T17:41:06.412Z,16.70
2018-10-17T17:43:35.308Z,16.60
2018-10-17T17:46:04.244Z,16.50
2018-10-17T17:48:33.293Z,16.40
2018-10-17T17:51:02.193Z,16.40
2018-10-17T17:53:31.024Z,16.30
2018-10-17T17:55:59.858Z,16.20
2018-10-17T17:58:28.840Z,16.10
2018-10-17T18:00:57.595Z,16.00
2018-10-17T18:03:26.444Z,15.80
2018-10-17T18:05:55.215Z,15.80
2018-10-17T18:08:24.012Z,15.80
2018-10-17T18:10:52.791Z,15.70
2018-10-17T18:13:21.581Z,15.70
2018-10-17T18:15:50.465Z,15.50
2018-10-17T18:18:19.376Z,15.40
2018-10-17T18:20:48.153Z,15.30
2018-10-17T18:23:16.919Z,15.20
2018-10-17T18:25:45.762Z,15.20
2018-10-17T18:28:14.660Z,15.10
2018-10-17T18:30:43.376Z,15.10
2018-10-17T18:33:12.901Z,15.00
2018-10-17T18:35:41.754Z,14.90
2018-10-17T18:38:12.040Z,14.80
2018-10-17T18:40:41.008Z,14.80
2018-10-17T18:43:09.712Z,14.70
2018-10-17T18:45:38.557Z,14.70
2018-10-17T18:48:07.328Z,14.60
2018-10-17T18:50:36.095Z,14.40
2018-10-17T18:53:05.220Z,14.40
2018-10-17T18:55:34.217Z,14.40
2018-10-17T18:58:03.391Z,14.40
2018-10-17T19:00:32.182Z,14.40
2018-10-17T19:03:01.182Z,14.40
2018-10-17T19:05:30.013Z,14.30
2018-10-17T19:07:58.845Z,14.30
2018-10-17T19:10:28.610Z,14.30
2018-10-17T19:12:57.591Z,14.40
2018-10-17T19:15:26.373Z,14.40
2018-10-17T19:17:55.167Z,14.30
2018-10-17T19:20:25.271Z,14.20
2018-10-17T19:22:54.879Z,14.10
2018-10-17T19:25:24.075Z,14.00
2018-10-17T19:27:52.966Z,13.90
2018-10-17T19:30:21.857Z,13.80
2018-10-17T19:32:50.667Z,13.90
2018-10-17T19:35:19.489Z,13.80
2018-10-17T19:37:48.280Z,13.80
2018-10-17T19:40:17.132Z,13.80
2018-10-17T19:42:46.024Z,13.80
2018-10-17T19:45:16.338Z,13.80
2018-10-17T19:47:45.201Z,13.70
2018-10-17T19:50:13.968Z,13.60
2018-10-17T19:52:42.812Z,13.70
2018-10-17T19:55:12.039Z,13.60
2018-10-17T19:57:41.020Z,13.60
2018-10-17T20:00:11.967Z,13.60
2018-10-17T20:02:41.139Z,13.60
2018-10-17T20:05:10.056Z,13.60
2018-10-17T20:07:39.241Z,13.60
2018-10-17T20:10:08.111Z,13.50
2018-10-17T20:12:37.038Z,13.50
2018-10-17T20:15:06.310Z,13.30
2018-10-17T20:17:35.048Z,13.30
2018-10-17T20:20:04.114Z,13.30
2018-10-17T20:22:33.713Z,13.20
2018-10-17T20:25:02.748Z,13.20
2018-10-17T20:27:31.540Z,13.20
2018-10-17T20:30:00.419Z,13.10
2018-10-17T20:32:29.360Z,13.10
2018-10-17T20:34:58.230Z,13.00
2018-10-17T20:37:27.044Z,13.00
2018-10-17T20:39:55.880Z,13.00
2018-10-17T20:42:24.814Z,12.90
2018-10-17T20:44:53.514Z,12.90
2018-10-17T20:47:22.339Z,12.90
2018-10-17T20:49:51.173Z,12.90
2018-10-17T20:52:20.475Z,12.80
2018-10-17T20:54:49.264Z,12.80
2018-10-17T20:57:18.055Z,12.90
2018-10-17T20:59:48.126Z,12.70
2018-10-17T21:02:17.828Z,12.70
2018-10-17T21:04:46.597Z,12.70
2018-10-17T21:07:15.406Z,12.70
2018-10-17T21:09:44.255Z,12.70
2018-10-17T21:12:13.056Z,12.60
2018-10-17T21:14:41.955Z,12.60
2018-10-17T21:17:10.757Z,12.60
2018-10-17T21:19:39.555Z,12.70
2018-10-17T21:22:08.369Z,12.70
2018-10-17T21:24:37.263Z,12.70
2018-10-17T21:27:06.045Z,12.70
2018-10-17T21:29:34.871Z,12.70
2018-10-17T21:32:03.762Z,12.70
2018-10-17T21:34:32.473Z,12.60
2018-10-17T21:37:01.269Z,12.70
2018-10-17T21:39:30.070Z,12.70
2018-10-17T21:41:58.853Z,12.70
2018-10-17T21:44:27.771Z,12.70
2018-10-17T21:46:56.627Z,12.60
2018-10-17T21:49:25.464Z,12.60
2018-10-17T21:51:54.388Z,12.60
2018-10-17T21:54:23.197Z,12.50
2018-10-17T21:56:51.999Z,12.50
2018-10-17T21:59:20.876Z,12.40
2018-10-17T22:01:49.684Z,12.40
2018-10-17T22:04:18.622Z,12.40
2018-10-17T22:06:47.512Z,12.30
2018-10-17T22:09:16.340Z,12.30
2018-10-17T22:11:45.128Z,12.30
2018-10-17T22:14:13.998Z,12.30
2018-10-17T22:16:47.922Z,12.20
2018-10-17T22:19:16.981Z,12.20
2018-10-17T22:21:45.569Z,12.20
2018-10-17T22:24:14.385Z,12.20
2018-10-17T22:26:43.180Z,12.10
2018-10-17T22:29:11.984Z,12.10
2018-10-17T22:31:40.777Z,12.10
2018-10-17T22:34:09.635Z,12.10
2018-10-17T22:36:38.455Z,12.10
2018-10-17T22:39:09.700Z,12.10
2018-10-17T22:41:38.489Z,12.10
2018-10-17T22:44:07.522Z,12.10
2018-10-17T22:46:36.285Z,12.00
2018-10-17T22:49:05.594Z,12.00
2018-10-17T22:51:34.392Z,12.00
2018-10-17T22:54:03.229Z,12.00
2018-10-17T22:56:32.036Z,11.90
2018-10-17T22:59:00.915Z,11.90
2018-10-17T23:01:29.694Z,11.90
2018-10-17T23:03:58.529Z,11.90
2018-10-17T23:06:27.328Z,11.80
2018-10-17T23:08:56.151Z,11.80
2018-10-17T23:11:24.974Z,11.90
2018-10-17T23:13:53.809Z,11.90
2018-10-17T23:16:22.618Z,11.80
2018-10-17T23:18:51.425Z,11.80
2018-10-17T23:21:20.250Z,11.80
2018-10-17T23:23:49.167Z,11.80
2018-10-17T23:26:18.006Z,11.80
2018-10-17T23:28:46.789Z,11.70
2018-10-17T23:31:15.567Z,11.70
2018-10-17T23:33:44.385Z,11.60
2018-10-17T23:36:13.483Z,11.60
2018-10-17T23:38:42.288Z,11.60
2018-10-17T23:41:11.092Z,11.70
2018-10-17T23:43:39.912Z,11.70
2018-10-17T23:46:08.711Z,11.70
2018-10-17T23:48:37.575Z,11.60
2018-10-17T23:51:06.353Z,11.70
2018-10-17T23:53:35.312Z,11.60
2018-10-17T23:56:04.158Z,11.60
2018-10-17T23:58:33.048Z,11.60
